createdAt,value
2018-10-19T00:00:42.001Z,58.40
2018-10-19T00:02:45.541Z,52.50
2018-10-19T00:04:49.293Z,55.73
2018-10-19T00:06:52.841Z,58.20
2018-10-19T00:08:56.448Z,54.87
2018-10-19T00:11:00.005Z,54.43
2018-10-19T00:13:03.539Z,59.33
2018-10-19T00:15:08.135Z,55.03
2018-10-19T00:17:11.668Z,53.10
2018-10-19T00:19:15.166Z,54.50
2018-10-19T00:21:18.750Z,57.90
2018-10-19T00:23:22.268Z,55.83
2018-10-19T00:25:25.841Z,53.83
2018-10-19T00:27:29.631Z,56.07
2018-10-19T00:29:33.141Z,57.67
2018-10-19T00:31:36.740Z,57.67
2018-10-19T00:33:40.327Z,65.33
2018-10-19T00:35:44.007Z,66.57
2018-10-19T00:37:47.733Z,56.13
2018-10-19T00:39:51.245Z,66.57
2018-10-19T00:41:54.803Z,65.73
2018-10-19T00:43:58.429Z,63.67
2018-10-19T00:46:02.182Z,63.20
2018-10-19T00:48:11.330Z,58.77
2018-10-19T00:50:15.060Z,63.50
2018-10-19T00:52:18.662Z,56.83
2018-10-19T00:54:22.186Z,61.93
2018-10-19T00:56:25.820Z,66.03
2018-10-19T00:58:29.362Z,68.40
2018-10-19T01:00:33.124Z,68.23
2018-10-19T01:02:36.672Z,67.07
2018-10-19T01:04:40.229Z,69.17
2018-10-19T01:06:43.858Z,68.20
2018-10-19T01:08:47.367Z,70.60
2018-10-19T01:10:51.097Z,70.83
2018-10-19T01:12:58.843Z,68.63
2018-10-19T01:15:02.496Z,67.13
2018-10-19T01:17:06.276Z,74.80
2018-10-19T01:19:09.821Z,71.50
2018-10-19T01:21:13.502Z,70.93
2018-10-19T01:23:17.070Z,65.73
2018-10-19T01:25:20.616Z,64.10
2018-10-19T01:27:24.212Z,67.17
2018-10-19T01:29:28.116Z,64.93
2018-10-19T01:31:31.637Z,65.13
2018-10-19T01:33:35.214Z,63.03
2018-10-19T01:35:38.790Z,56.80
2018-10-19T01:37:42.292Z,76.60
2018-10-19T01:39:45.830Z,69.57
2018-10-19T01:41:49.532Z,68.90
2018-10-19T01:43:53.205Z,69.17
2018-10-19T01:45:57.825Z,74.50
2018-10-19T01:48:01.376Z,66.23
2018-10-19T01:50:05.465Z,68.53
2018-10-19T01:52:09.045Z,70.70
2018-10-19T01:54:12.868Z,79.43
2018-10-19T01:56:16.580Z,76.00
2018-10-19T01:58:20.359Z,72.83
2018-10-19T02:00:23.911Z,71.40
2018-10-19T02:02:27.631Z,78.37
2018-10-19T02:04:31.233Z,69.17
2018-10-19T02:06:34.746Z,74.67
2018-10-19T02:08:38.315Z,75.80
2018-10-19T02:10:41.894Z,77.63
2018-10-19T02:12:45.463Z,73.60
2018-10-19T02:14:49.263Z,76.57
2018-10-19T02:16:52.878Z,73.97
2018-10-19T02:18:56.393Z,74.73
2018-10-19T02:20:59.991Z,74.23
2018-10-19T02:23:03.583Z,78.97
2018-10-19T02:25:07.255Z,79.97
2018-10-19T02:27:10.874Z,79.03
2018-10-19T02:29:14.506Z,78.27
2018-10-19T02:31:18.181Z,80.07
2018-10-19T02:33:21.837Z,77.53
2018-10-19T02:35:25.360Z,75.60
2018-10-19T02:37:28.908Z,81.17
2018-10-19T02:39:32.444Z,74.30
2018-10-19T02:41:36.256Z,83.43
2018-10-19T02:43:39.813Z,81.53
2018-10-19T02:45:43.466Z,81.43
2018-10-19T02:47:47.265Z,83.77
2018-10-19T02:49:50.897Z,87.67
2018-10-19T02:51:54.487Z,88.70
2018-10-19T02:53:58.074Z,89.03
2018-10-19T02:56:01.649Z,90.97
2018-10-19T02:58:05.344Z,83.80
2018-10-19T03:00:10.755Z,86.50
2018-10-19T03:02:14.419Z,92.03
2018-10-19T03:04:17.969Z,89.17
2018-10-19T03:06:21.505Z,81.60
2018-10-19T03:08:25.204Z,80.73
2018-10-19T03:10:28.751Z,86.00
2018-10-19T03:12:32.417Z,85.90
2018-10-19T03:14:36.018Z,81.43
2018-10-19T03:16:39.558Z,86.13
2018-10-19T03:18:43.167Z,76.87
2018-10-19T03:20:46.731Z,77.80
2018-10-19T03:22:50.280Z,76.83
2018-10-19T03:24:53.844Z,74.83
2018-10-19T03:26:57.477Z,78.73
2018-10-19T03:29:01.088Z,70.93
2018-10-19T03:31:05.335Z,79.37
2018-10-19T03:33:08.924Z,74.13
2018-10-19T03:35:12.487Z,80.57
2018-10-19T03:37:16.029Z,77.10
2018-10-19T03:39:20.031Z,73.80
2018-10-19T03:41:23.462Z,75.83
2018-10-19T03:43:27.015Z,74.03
2018-10-19T03:45:30.556Z,77.10
2018-10-19T03:47:34.308Z,75.10
2018-10-19T03:49:37.864Z,78.90
2018-10-19T03:51:41.452Z,81.40
2018-10-19T03:53:45.001Z,75.73
2018-10-19T03:55:48.616Z,81.03
2018-10-19T03:57:52.321Z,72.73
2018-10-19T03:59:55.892Z,87.77
2018-10-19T04:01:59.447Z,79.97
2018-10-19T04:04:03.143Z,82.67
2018-10-19T04:06:06.727Z,75.93
2018-10-19T04:08:16.906Z,82.43
2018-10-19T04:10:20.530Z,80.13
2018-10-19T04:12:24.088Z,77.37
2018-10-19T04:14:27.703Z,81.93
2018-10-19T04:16:31.435Z,81.80
2018-10-19T04:18:35.047Z,81.07
2018-10-19T04:20:38.584Z,77.73
2018-10-19T04:22:42.341Z,86.37
2018-10-19T04:24:46.111Z,82.07
2018-10-19T04:26:49.750Z,79.90
2018-10-19T04:28:53.306Z,83.30
2018-10-19T04:30:56.840Z,80.90
2018-10-19T04:33:00.821Z,84.23
2018-10-19T04:35:04.607Z,83.00
2018-10-19T04:37:08.326Z,83.70
2018-10-19T04:39:11.917Z,87.27
2018-10-19T04:41:15.627Z,82.20
2018-10-19T04:43:19.241Z,82.07
2018-10-19T04:45:22.842Z,88.47
2018-10-19T04:47:26.419Z,84.43
2018-10-19T04:49:30.168Z,86.30
2018-10-19T04:51:33.876Z,84.50
2018-10-19T04:53:37.423Z,85.83
2018-10-19T04:55:41.164Z,82.27
2018-10-19T04:57:44.756Z,86.00
2018-10-19T04:59:48.188Z,84.40
2018-10-19T05:01:51.739Z,87.43
2018-10-19T05:03:55.345Z,85.27
2018-10-19T05:05:59.027Z,81.63
2018-10-19T05:08:02.599Z,84.83
2018-10-19T05:10:07.047Z,83.27
2018-10-19T05:12:10.564Z,86.57
2018-10-19T05:14:14.193Z,80.80
2018-10-19T05:16:17.736Z,76.90
2018-10-19T05:18:21.417Z,82.57
2018-10-19T05:20:24.980Z,80.47
2018-10-19T05:22:28.696Z,78.20
2018-10-19T05:24:32.294Z,85.03
2018-10-19T05:26:35.780Z,84.13
2018-10-19T05:28:39.447Z,83.30
2018-10-19T05:30:42.996Z,89.33
2018-10-19T05:32:46.497Z,87.60
2018-10-19T05:34:50.277Z,81.87
2018-10-19T05:36:53.773Z,87.43
2018-10-19T05:38:57.287Z,92.60
2018-10-19T05:41:00.971Z,98.70
2018-10-19T05:43:04.919Z,96.20
2018-10-19T05:45:10.115Z,95.73
2018-10-19T05:47:13.771Z,93.57
2018-10-19T05:49:17.247Z,91.30
2018-10-19T05:51:20.768Z,94.23
2018-10-19T05:53:24.412Z,104.57
2018-10-19T05:55:27.930Z,91.03
2018-10-19T05:57:31.764Z,101.80
2018-10-19T05:59:35.354Z,98.50
2018-10-19T06:01:38.982Z,102.70
2018-10-19T06:03:42.549Z,91.80
2018-10-19T06:05:46.133Z,90.43
2018-10-19T06:07:49.869Z,100.57
2018-10-19T06:09:53.372Z,98.73
2018-10-19T06:11:56.891Z,92.70
2018-10-19T06:14:00.557Z,98.77
2018-10-19T06:16:04.032Z,101.40
2018-10-19T06:18:07.576Z,92.20
2018-10-19T06:20:11.258Z,87.13
2018-10-19T06:22:14.751Z,84.10
2018-10-19T06:24:18.229Z,84.63
2018-10-19T06:26:21.835Z,77.93
2018-10-19T06:28:25.611Z,88.83
2018-10-19T06:30:29.200Z,83.00
2018-10-19T06:32:33.774Z,86.30
2018-10-19T06:34:37.456Z,82.87
2018-10-19T06:36:41.286Z,101.43
2018-10-19T06:38:44.833Z,85.30
2018-10-19T06:40:48.365Z,88.23
2018-10-19T06:42:51.963Z,98.43
2018-10-19T06:44:55.456Z,111.57
2018-10-19T06:46:59.411Z,100.47
2018-10-19T06:49:02.954Z,117.20
2018-10-19T06:51:06.540Z,120.53
2018-10-19T06:53:10.142Z,118.13
2018-10-19T06:55:17.137Z,116.30
2018-10-19T06:57:20.640Z,122.17
2018-10-19T06:59:24.568Z,133.50
2018-10-19T07:01:28.108Z,122.23
2018-10-19T07:03:31.640Z,120.90
2018-10-19T07:05:35.190Z,131.20
2018-10-19T07:07:38.799Z,131.97
2018-10-19T07:09:42.401Z,124.87
2018-10-19T07:11:45.987Z,133.23
2018-10-19T07:13:49.616Z,130.77
2018-10-19T07:15:53.269Z,127.97
2018-10-19T07:17:56.715Z,132.97
2018-10-19T07:20:00.429Z,127.37
2018-10-19T07:22:03.979Z,133.60
2018-10-19T07:24:07.504Z,134.43
2018-10-19T07:26:11.089Z,137.53
2018-10-19T07:28:14.746Z,133.27
2018-10-19T07:30:18.250Z,141.30
2018-10-19T07:32:22.044Z,135.17
2018-10-19T07:34:25.608Z,132.70
2018-10-19T07:36:29.220Z,128.73
2018-10-19T07:38:32.808Z,131.57
2018-10-19T07:40:36.436Z,129.00
2018-10-19T07:42:40.136Z,127.53
2018-10-19T07:44:43.707Z,131.97
2018-10-19T07:46:47.375Z,143.80
2018-10-19T07:48:51.191Z,130.40
2018-10-19T07:50:54.676Z,136.00
2018-10-19T07:52:58.212Z,128.20
2018-10-19T07:55:02.001Z,130.20
2018-10-19T07:57:05.855Z,128.43
2018-10-19T07:59:09.427Z,136.90
2018-10-19T08:01:13.073Z,121.93
2018-10-19T08:03:16.548Z,130.80
2018-10-19T08:05:20.362Z,130.90
2018-10-19T08:07:23.972Z,137.33
2018-10-19T08:09:27.608Z,134.47
2018-10-19T08:11:31.238Z,135.67
2018-10-19T08:13:34.684Z,148.43
2018-10-19T08:15:38.356Z,142.07
2018-10-19T08:17:41.945Z,140.63
2018-10-19T08:19:45.468Z,133.87
2018-10-19T08:21:48.983Z,133.20
2018-10-19T08:23:52.564Z,128.20
2018-10-19T08:25:56.197Z,144.03
2018-10-19T08:27:59.716Z,141.33
2018-10-19T08:30:03.388Z,134.10
2018-10-19T08:32:07.534Z,142.97
2018-10-19T08:34:11.080Z,142.93
2018-10-19T08:36:21.229Z,135.53
2018-10-19T08:38:24.867Z,133.17
2018-10-19T08:40:28.382Z,128.57
2018-10-19T08:42:31.884Z,135.03
2018-10-19T08:44:35.400Z,127.90
2018-10-19T08:46:40.192Z,127.13
2018-10-19T08:48:43.781Z,129.20
2018-10-19T08:50:47.307Z,128.03
2018-10-19T08:52:50.907Z,125.67
2018-10-19T08:54:55.043Z,118.93
2018-10-19T08:56:58.568Z,123.80
2018-10-19T08:59:02.204Z,122.57
2018-10-19T09:01:06.677Z,122.93
2018-10-19T09:03:10.520Z,118.03
2018-10-19T09:05:14.007Z,125.57
2018-10-19T09:07:17.468Z,123.10
2018-10-19T09:09:20.979Z,113.83
2018-10-19T09:11:24.779Z,115.27
2018-10-19T09:13:28.283Z,115.43
2018-10-19T09:15:31.922Z,120.43
2018-10-19T09:17:35.493Z,115.10
2018-10-19T09:19:39.231Z,121.07
2018-10-19T09:21:42.828Z,115.03
2018-10-19T09:23:46.324Z,122.57
2018-10-19T09:25:50.012Z,124.87
2018-10-19T09:27:53.510Z,127.27
2018-10-19T09:29:57.060Z,129.83
2018-10-19T09:32:00.590Z,136.73
2018-10-19T09:34:04.292Z,127.93
2018-10-19T09:36:08.010Z,125.73
2018-10-19T09:38:11.584Z,138.90
2018-10-19T09:40:15.113Z,131.97
2018-10-19T09:42:18.627Z,133.07
2018-10-19T09:44:22.167Z,138.67
2018-10-19T09:46:25.703Z,133.07
2018-10-19T09:48:29.188Z,135.27
2018-10-19T09:50:32.805Z,141.70
2018-10-19T09:52:36.337Z,134.00
2018-10-19T09:54:39.839Z,139.17
2018-10-19T09:56:43.371Z,139.03
2018-10-19T09:58:47.055Z,128.93
2018-10-19T10:00:56.003Z,125.37
2018-10-19T10:02:59.712Z,133.77
2018-10-19T10:05:03.294Z,136.87
2018-10-19T10:07:06.887Z,125.50
2018-10-19T10:09:13.949Z,126.83
2018-10-19T10:11:17.490Z,128.17
2018-10-19T10:13:21.256Z,137.00
2018-10-19T10:15:24.903Z,127.43
2018-10-19T10:17:28.337Z,126.63
2018-10-19T10:19:31.855Z,134.73
2018-10-19T10:21:35.471Z,132.33
2018-10-19T10:23:39.018Z,148.93
2018-10-19T10:25:42.787Z,208.57
2018-10-19T10:27:46.320Z,164.80
2018-10-19T10:29:49.985Z,136.60
2018-10-19T10:31:53.558Z,128.00
2018-10-19T10:33:57.063Z,134.80
2018-10-19T10:36:00.593Z,128.33
2018-10-19T10:38:05.244Z,127.50
2018-10-19T10:40:09.137Z,123.03
2018-10-19T10:42:12.595Z,116.57
2018-10-19T10:44:16.188Z,118.00
2018-10-19T10:46:19.913Z,124.83
2018-10-19T10:48:23.583Z,117.40
2018-10-19T10:50:29.923Z,121.03
2018-10-19T10:52:33.495Z,115.73
2018-10-19T10:54:37.049Z,117.10
2018-10-19T10:56:40.578Z,120.40
2018-10-19T10:58:44.189Z,117.77
2018-10-19T11:00:47.813Z,115.13
2018-10-19T11:02:51.472Z,115.80
2018-10-19T11:04:55.007Z,115.47
2018-10-19T11:06:58.571Z,109.00
2018-10-19T11:09:02.117Z,115.67
2018-10-19T11:11:09.464Z,113.33
2018-10-19T11:13:13.054Z,116.67
2018-10-19T11:15:16.536Z,105.60
2018-10-19T11:17:20.127Z,112.87
2018-10-19T11:19:23.658Z,106.00
2018-10-19T11:21:27.189Z,98.97
2018-10-19T11:23:30.736Z,109.73
2018-10-19T11:25:34.392Z,111.43
2018-10-19T11:27:38.252Z,107.87
2018-10-19T11:29:41.822Z,99.40
2018-10-19T11:31:45.532Z,106.63
2018-10-19T11:33:49.099Z,104.63
2018-10-19T11:35:52.633Z,102.03
2018-10-19T11:37:56.363Z,102.37
2018-10-19T11:40:11.084Z,99.83
2018-10-19T11:42:14.567Z,90.30
2018-10-19T11:44:18.144Z,92.93
2018-10-19T11:46:21.696Z,99.10
2018-10-19T11:48:25.267Z,96.53
2018-10-19T11:50:28.962Z,95.43
2018-10-19T11:52:32.574Z,98.67
2018-10-19T11:54:36.237Z,94.97
2018-10-19T11:56:40.671Z,88.03
2018-10-19T11:58:44.204Z,96.07
2018-10-19T12:00:47.805Z,92.20
2018-10-19T12:02:51.394Z,91.50
2018-10-19T12:04:55.132Z,82.57
2018-10-19T12:06:58.689Z,92.67
2018-10-19T12:09:02.227Z,86.73
2018-10-19T12:11:06.014Z,87.80
2018-10-19T12:13:09.763Z,95.23
2018-10-19T12:15:14.399Z,93.77
2018-10-19T12:17:17.884Z,86.57
2018-10-19T12:19:21.568Z,89.20
2018-10-19T12:21:25.410Z,92.73
2018-10-19T12:23:29.292Z,93.53
2018-10-19T12:25:32.887Z,88.87
2018-10-19T12:27:36.450Z,80.90
2018-10-19T12:29:40.201Z,86.27
2018-10-19T12:31:43.699Z,91.07
2018-10-19T12:33:47.218Z,96.30
2018-10-19T12:35:50.735Z,85.40
2018-10-19T12:37:54.334Z,83.50
2018-10-19T12:39:57.899Z,82.60
2018-10-19T12:42:01.744Z,71.93
2018-10-19T12:44:05.446Z,73.40
2018-10-19T12:46:22.152Z,80.00
2018-10-19T12:48:25.663Z,82.77
2018-10-19T12:50:29.186Z,90.90
2018-10-19T12:52:32.843Z,75.00
2018-10-19T12:54:36.421Z,76.23
2018-10-19T12:56:39.967Z,74.83
2018-10-19T12:58:43.575Z,78.73
2018-10-19T13:00:47.336Z,72.90
2018-10-19T13:02:50.816Z,75.33
2018-10-19T13:04:54.365Z,84.67
2018-10-19T13:06:58.180Z,83.43
2018-10-19T13:09:01.749Z,87.40
2018-10-19T13:11:05.563Z,78.43
2018-10-19T13:13:09.275Z,78.80
2018-10-19T13:15:13.460Z,85.83
2018-10-19T13:17:17.160Z,78.80
2018-10-19T13:19:20.687Z,76.57
2018-10-19T13:21:24.199Z,85.97
2018-10-19T13:23:28.908Z,77.53
2018-10-19T13:25:32.468Z,66.63
2018-10-19T13:27:36.061Z,70.50
2018-10-19T13:29:39.674Z,77.70
2018-10-19T13:31:43.188Z,72.33
2018-10-19T13:33:46.692Z,81.00
2018-10-19T13:35:50.404Z,70.83
2018-10-19T13:37:54.228Z,75.60
2018-10-19T13:39:58.037Z,74.33
2018-10-19T13:42:01.572Z,69.07
2018-10-19T13:44:05.149Z,80.77
2018-10-19T13:46:08.720Z,71.13
2018-10-19T13:48:12.279Z,71.90
2018-10-19T13:50:15.998Z,66.10
2018-10-19T13:52:19.655Z,68.27
2018-10-19T13:54:23.237Z,66.03
2018-10-19T13:56:26.908Z,63.93
2018-10-19T13:58:30.542Z,69.33
2018-10-19T14:00:34.024Z,65.47
2018-10-19T14:02:37.912Z,75.83
2018-10-19T14:04:41.529Z,72.23
2018-10-19T14:06:45.025Z,71.67
2018-10-19T14:08:48.693Z,72.00
2018-10-19T14:10:52.262Z,64.00
2018-10-19T14:12:55.898Z,60.67
2018-10-19T14:14:59.531Z,60.20
2018-10-19T14:17:03.317Z,63.53
2018-10-19T14:19:09.695Z,53.47
2018-10-19T14:21:13.542Z,61.40
2018-10-19T14:23:17.341Z,56.47
2018-10-19T14:25:20.823Z,62.00
2018-10-19T14:27:24.430Z,59.90
2018-10-19T14:29:28.095Z,60.50
2018-10-19T14:31:31.628Z,69.17
2018-10-19T14:33:35.396Z,57.67
2018-10-19T14:35:38.879Z,63.97
2018-10-19T14:37:43.584Z,64.63
2018-10-19T14:39:47.123Z,66.50
2018-10-19T14:41:50.707Z,62.13
2018-10-19T14:43:54.359Z,61.77
2018-10-19T14:45:57.877Z,65.93
2018-10-19T14:48:01.449Z,62.93
2018-10-19T14:50:05.404Z,66.47
2018-10-19T14:52:08.915Z,63.90
2018-10-19T14:54:12.448Z,65.37
2018-10-19T14:56:16.010Z,68.87
2018-10-19T14:58:19.688Z,66.17
2018-10-19T15:00:23.289Z,70.07
2018-10-19T15:02:26.841Z,70.23
2018-10-19T15:04:30.566Z,63.20
2018-10-19T15:06:34.292Z,65.67
2018-10-19T15:08:37.828Z,67.40
2018-10-19T15:10:41.984Z,67.47
2018-10-19T15:12:48.140Z,63.53
2018-10-19T15:14:51.636Z,60.70
2018-10-19T15:16:55.296Z,65.87
2018-10-19T15:18:59.177Z,54.63
2018-10-19T15:21:02.968Z,65.13
2018-10-19T15:23:06.455Z,62.27
2018-10-19T15:25:10.641Z,61.00
2018-10-19T15:27:14.470Z,68.67
2018-10-19T15:29:17.890Z,60.77
2018-10-19T15:31:21.480Z,64.03
2018-10-19T15:33:25.098Z,67.17
2018-10-19T15:35:28.638Z,69.67
2018-10-19T15:37:32.164Z,61.73
2018-10-19T15:39:35.737Z,71.70
2018-10-19T15:41:39.525Z,65.20
2018-10-19T15:43:43.094Z,66.90
2018-10-19T15:45:46.651Z,73.50
2018-10-19T15:47:50.148Z,75.70
2018-10-19T15:49:54.607Z,78.50
2018-10-19T15:51:58.398Z,77.87
2018-10-19T15:54:02.460Z,77.10
2018-10-19T15:56:06.232Z,79.37
2018-10-19T15:58:09.829Z,81.17
2018-10-19T16:00:13.422Z,70.67
2018-10-19T16:02:17.540Z,73.57
2018-10-19T16:04:21.669Z,72.00
2018-10-19T16:06:25.422Z,72.23
2018-10-19T16:08:28.956Z,65.70
2018-10-19T16:10:32.512Z,86.70
2018-10-19T16:12:36.212Z,76.33
2018-10-19T16:14:39.920Z,75.50
2018-10-19T16:16:43.521Z,71.97
2018-10-19T16:18:47.103Z,82.13
2018-10-19T16:20:50.634Z,70.40
2018-10-19T16:22:54.179Z,72.37
2018-10-19T16:24:58.022Z,73.90
2018-10-19T16:27:01.661Z,71.67
2018-10-19T16:29:05.291Z,83.57
2018-10-19T16:31:08.814Z,80.60
2018-10-19T16:33:12.829Z,82.93
2018-10-19T16:35:16.422Z,81.27
2018-10-19T16:37:19.947Z,77.37
2018-10-19T16:39:23.496Z,80.37
2018-10-19T16:41:27.087Z,75.60
2018-10-19T16:43:30.609Z,78.77
2018-10-19T16:45:34.195Z,76.97
2018-10-19T16:47:37.829Z,80.17
2018-10-19T16:49:41.349Z,75.87
2018-10-19T16:51:44.856Z,77.50
2018-10-19T16:53:48.506Z,93.07
2018-10-19T16:55:52.105Z,83.20
2018-10-19T16:57:55.684Z,91.03
2018-10-19T16:59:59.206Z,82.70
2018-10-19T17:02:02.728Z,79.70
2018-10-19T17:04:06.583Z,80.10
2018-10-19T17:06:10.195Z,79.77
2018-10-19T17:08:13.764Z,72.30
2018-10-19T17:10:17.492Z,68.13
2018-10-19T17:12:21.192Z,73.80
2018-10-19T17:14:24.723Z,71.27
2018-10-19T17:16:28.260Z,77.10
2018-10-19T17:18:31.779Z,70.67
2018-10-19T17:20:35.364Z,77.67
2018-10-19T17:22:38.994Z,82.33
2018-10-19T17:24:42.628Z,84.77
2018-10-19T17:26:46.234Z,77.77
2018-10-19T17:28:50.089Z,75.87
2018-10-19T17:30:53.620Z,87.80
2018-10-19T17:32:57.272Z,75.87
2018-10-19T17:35:00.805Z,67.17
2018-10-19T17:37:04.739Z,77.30
2018-10-19T17:39:09.762Z,72.77
2018-10-19T17:41:13.341Z,77.13
2018-10-19T17:43:16.876Z,80.63
2018-10-19T17:45:20.592Z,86.63
2018-10-19T17:47:24.217Z,75.60
2018-10-19T17:49:27.746Z,77.47
2018-10-19T17:51:31.497Z,75.60
2018-10-19T17:53:35.091Z,82.13
2018-10-19T17:55:38.663Z,79.53
2018-10-19T17:57:42.310Z,80.50
2018-10-19T17:59:45.840Z,81.90
2018-10-19T18:01:49.373Z,79.33
2018-10-19T18:03:52.989Z,76.97
2018-10-19T18:05:56.578Z,86.73
2018-10-19T18:08:00.179Z,87.40
2018-10-19T18:10:03.795Z,87.27
2018-10-19T18:12:07.422Z,84.37
2018-10-19T18:14:11.159Z,91.63
2018-10-19T18:16:14.701Z,80.70
2018-10-19T18:18:18.223Z,85.50
2018-10-19T18:20:22.016Z,82.30
2018-10-19T18:22:25.891Z,80.23
2018-10-19T18:24:29.346Z,80.70
2018-10-19T18:26:32.969Z,75.50
2018-10-19T18:28:36.558Z,81.80
2018-10-19T18:30:40.330Z,83.67
2018-10-19T18:32:43.881Z,83.23
2018-10-19T18:34:47.696Z,82.87
2018-10-19T18:36:51.212Z,81.97
2018-10-19T18:38:54.986Z,73.87
2018-10-19T18:40:58.565Z,77.17
2018-10-19T18:43:02.271Z,76.27
2018-10-19T18:45:06.395Z,77.60
2018-10-19T18:47:10.241Z,84.40
2018-10-19T18:49:13.749Z,88.47
2018-10-19T18:51:17.485Z,80.63
2018-10-19T18:53:21.301Z,81.77
2018-10-19T18:55:24.786Z,88.07
2018-10-19T18:57:28.387Z,83.60
2018-10-19T18:59:31.999Z,89.30
2018-10-19T19:01:35.595Z,86.00
2018-10-19T19:03:39.236Z,80.00
2018-10-19T19:05:42.817Z,87.77
2018-10-19T19:07:46.339Z,89.77
2018-10-19T19:09:55.357Z,84.73
2018-10-19T19:11:59.044Z,81.90
2018-10-19T19:14:02.678Z,87.77
2018-10-19T19:16:10.568Z,87.20
2018-10-19T19:18:14.269Z,83.23
2018-10-19T19:20:23.160Z,87.43
2018-10-19T19:22:26.958Z,94.30
2018-10-19T19:24:35.728Z,88.67
2018-10-19T19:26:39.316Z,86.57
2018-10-19T19:28:43.202Z,83.10
2018-10-19T19:30:46.936Z,90.53
2018-10-19T19:32:55.812Z,86.90
2018-10-19T19:34:59.495Z,86.13
2018-10-19T19:37:03.257Z,88.77
2018-10-19T19:39:08.639Z,95.03
2018-10-19T19:41:17.683Z,98.37
2018-10-19T19:43:21.280Z,117.20
2018-10-19T19:45:24.919Z,136.00
2018-10-19T19:47:33.822Z,127.87
2018-10-19T19:49:39.853Z,127.87
2018-10-19T19:51:43.458Z,123.67
2018-10-19T19:53:47.099Z,125.93
2018-10-19T19:55:50.692Z,129.50
2018-10-19T19:57:54.458Z,122.47
2018-10-19T19:59:58.038Z,130.57
2018-10-19T20:02:01.672Z,128.70
2018-10-19T20:04:05.532Z,123.17
2018-10-19T20:06:09.286Z,122.53
2018-10-19T20:08:12.828Z,108.23
2018-10-19T20:10:16.527Z,124.27
2018-10-19T20:12:20.226Z,110.93
2018-10-19T20:14:30.189Z,105.77
2018-10-19T20:16:33.879Z,103.83
2018-10-19T20:18:37.467Z,102.33
2018-10-19T20:20:41.169Z,102.50
2018-10-19T20:22:44.744Z,104.20
2018-10-19T20:24:48.800Z,100.87
2018-10-19T20:26:52.361Z,107.33
2018-10-19T20:28:55.999Z,108.00
2018-10-19T20:30:59.555Z,98.73
2018-10-19T20:33:03.156Z,100.07
2018-10-19T20:35:06.980Z,108.13
2018-10-19T20:37:10.504Z,113.03
2018-10-19T20:39:14.080Z,109.83
2018-10-19T20:41:17.665Z,106.03
2018-10-19T20:43:21.375Z,107.10
2018-10-19T20:45:24.946Z,111.07
2018-10-19T20:47:28.540Z,109.63
2018-10-19T20:49:32.124Z,106.53
2018-10-19T20:51:35.660Z,106.23
2018-10-19T20:53:39.203Z,102.20
2018-10-19T20:55:42.796Z,110.33
2018-10-19T20:57:46.439Z,105.53
2018-10-19T20:59:49.980Z,101.10
2018-10-19T21:01:53.568Z,109.27
2018-10-19T21:03:57.213Z,112.13
2018-10-19T21:06:00.715Z,104.57
2018-10-19T21:08:04.342Z,101.50
2018-10-19T21:10:10.460Z,100.63
2018-10-19T21:12:14.005Z,100.80
2018-10-19T21:14:17.549Z,113.80
2018-10-19T21:16:21.193Z,105.80
2018-10-19T21:18:24.853Z,108.40
2018-10-19T21:20:28.431Z,109.37
2018-10-19T21:22:31.971Z,111.07
2018-10-19T21:24:35.624Z,111.40
2018-10-19T21:26:39.301Z,104.43
2018-10-19T21:28:42.918Z,116.53
2018-10-19T21:30:46.528Z,104.53
2018-10-19T21:32:50.145Z,109.63
2018-10-19T21:34:53.761Z,99.33
2018-10-19T21:36:57.385Z,108.43
2018-10-19T21:39:00.921Z,110.60
2018-10-19T21:41:04.652Z,108.17
2018-10-19T21:43:08.312Z,103.13
2018-10-19T21:45:11.946Z,105.10
2018-10-19T21:47:15.718Z,102.43
2018-10-19T21:49:19.303Z,103.30
2018-10-19T21:51:22.874Z,103.80
2018-10-19T21:53:26.575Z,108.63
2018-10-19T21:55:30.147Z,111.23
2018-10-19T21:57:33.669Z,98.63
2018-10-19T21:59:37.279Z,100.17
2018-10-19T22:01:41.004Z,102.50
2018-10-19T22:03:44.599Z,101.53
2018-10-19T22:05:48.187Z,101.53
2018-10-19T22:07:51.853Z,110.37
2018-10-19T22:09:55.461Z,107.13
2018-10-19T22:11:59.031Z,110.27
2018-10-19T22:14:02.593Z,109.07
2018-10-19T22:16:07.030Z,105.40
2018-10-19T22:18:10.743Z,101.87
2018-10-19T22:20:14.365Z,100.57
2018-10-19T22:22:17.924Z,105.73
2018-10-19T22:24:21.443Z,114.33
2018-10-19T22:26:25.150Z,111.67
2018-10-19T22:28:28.662Z,112.40
2018-10-19T22:30:32.232Z,105.20
2018-10-19T22:32:35.833Z,107.00
2018-10-19T22:34:39.462Z,101.57
2018-10-19T22:36:42.966Z,92.60
2018-10-19T22:38:46.603Z,97.90
2018-10-19T22:40:50.296Z,101.03
2018-10-19T22:42:53.848Z,101.13
2018-10-19T22:44:57.364Z,91.67
2018-10-19T22:47:01.085Z,100.37
2018-10-19T22:49:05.033Z,106.27
2018-10-19T22:51:08.555Z,92.87
2018-10-19T22:53:12.208Z,96.30
2018-10-19T22:55:15.917Z,98.97
2018-10-19T22:57:19.460Z,97.23
2018-10-19T22:59:23.216Z,98.70
2018-10-19T23:01:26.806Z,96.90
2018-10-19T23:03:30.481Z,97.73
2018-10-19T23:05:34.030Z,97.90
2018-10-19T23:07:37.587Z,98.87
2018-10-19T23:09:41.415Z,93.70
2018-10-19T23:11:45.044Z,92.77
2018-10-19T23:13:48.640Z,94.57
2018-10-19T23:15:52.157Z,96.53
2018-10-19T23:17:55.767Z,109.40
2018-10-19T23:19:59.320Z,94.83
2018-10-19T23:22:02.846Z,96.33
2018-10-19T23:24:07.096Z,96.13
2018-10-19T23:26:10.721Z,98.10
2018-10-19T23:28:14.336Z,92.50
2018-10-19T23:30:17.922Z,94.73
2018-10-19T23:32:21.438Z,92.53
2018-10-19T23:34:25.013Z,97.67
2018-10-19T23:36:28.600Z,95.50
2018-10-19T23:38:32.326Z,96.23
2018-10-19T23:40:36.061Z,91.93
2018-10-19T23:42:39.824Z,97.53
2018-10-19T23:44:43.453Z,88.77
2018-10-19T23:46:47.032Z,96.47
2018-10-19T23:48:50.617Z,94.63
2018-10-19T23:50:54.176Z,99.37
2018-10-19T23:52:57.939Z,94.07
2018-10-19T23:55:01.600Z,96.03
2018-10-19T23:57:05.288Z,95.23
2018-10-19T23:59:08.884Z,90.23
